Walter J Mccarthy Jr — WXU3434 — position and weather

sailwx.info

Track history (hours):
 
Tides and Currents Weather Stations Pressure Air Temp Water Temp Dewpoint Dewpoint Depression Visibility Wind Speed Wind Dir Waves Ship Positions

Walter J Mccarthy Jr

Owner: ARMSTRONG STEAMSHIP CO, WILLIAMSVILLE, NY. More information available from US FCC via Universal Licensing System and Coast Guard Vessel Documentation Center.

Last reported at 2017-Oct-22 04:00 UTC. Time now 2017-Oct-22 12:13 UTC.
Position N 44°54' W 082°54'.

Length 304 m; draft 8.5 m.

Type: Cargo ship. MMSI: 366906610.

Wind from 190 at 16 knots

Barometer 1019.0 mb
Air temperature 14.4 ° C
Visibility: greater than 10.8 NM
Dewpoint 13.3 ° C

Date/timePositionNaut miles runAvg speedWind from/ knotsBaromVisibWave heightAir tempDewpointWater temp
2017-Oct-22 04:00N 44°54' W 082°54'4912.1 190 / 161019.010.8 14.413.3
2017-Oct-21 23:55N 45°37' W 083°28'511.4
2017-Oct-21 23:28N 45°41' W 083°33'511.3
2017-Oct-21 23:00N 45°45' W 083°38'611.5
2017-Oct-21 22:30N 45°49' W 083°43'611.6
2017-Oct-21 22:00N 45°53' W 083°49'610.9
2017-Oct-21 21:29N 45°58' W 083°54'144 8.2
2017-Oct-21 04:00N 47°18' W 086°48'19311.8 180 / 201011.010.8 12.210.5
2017-Oct-20 11:39N 46°57' W 091°31'212.4
2017-Oct-20 11:28N 46°56' W 091°34'612.3
2017-Oct-20 11:00N 46°53' W 091°41'612.1
2017-Oct-20 10:30N 46°51' W 091°49'612.0
2017-Oct-20 10:00N 46°48' W 091°57'510.4
2017-Oct-20 09:30N 46°47' W 092°04'2 3.5
2017-Oct-20 09:00N 46°45' W 092°06'1 2.5
2017-Oct-20 08:30N 46°45' W 092°07'0 0.0
2017-Oct-20 08:00N 46°45' W 092°07'0 0.0
2017-Oct-20 07:30N 46°45' W 092°07'0 0.0
2017-Oct-20 07:00N 46°45' W 092°07'0 0.0
2017-Oct-20 06:30N 46°45' W 092°07'0 0.0
2017-Oct-20 06:00N 46°45' W 092°07'0 0.0
2017-Oct-20 05:30N 46°45' W 092°07'0 0.0
2017-Oct-20 05:00N 46°45' W 092°07'0 0.0
2017-Oct-20 04:30N 46°45' W 092°07'0 0.0
2017-Oct-20 04:00N 46°45' W 092°07'0 0.0
2017-Oct-20 03:30N 46°45' W 092°07'0 0.0
2017-Oct-20 03:00N 46°45' W 092°07'0 0.0
2017-Oct-20 02:30N 46°45' W 092°07'0 0.0
2017-Oct-20 02:00N 46°45' W 092°07'0 0.0
2017-Oct-20 01:30N 46°45' W 092°07'0 0.0
2017-Oct-20 01:00N 46°45' W 092°07'0 0.0
2017-Oct-20 00:30N 46°45' W 092°07'0 0.0
2017-Oct-20 00:00N 46°45' W 092°07'0 0.0
2017-Oct-19 23:30N 46°45' W 092°07'0 0.0
2017-Oct-19 23:00N 46°45' W 092°07'0 0.0
2017-Oct-19 22:30N 46°45' W 092°07'0 0.0
2017-Oct-19 22:00N 46°45' W 092°07'0 0.0
2017-Oct-19 21:30N 46°45' W 092°07'0 0.7
2017-Oct-19 21:00N 46°45' W 092°06'1 1.6
2017-Oct-19 20:30N 46°45' W 092°06'2 3.1
2017-Oct-19 20:00N 46°47' W 092°05'3 5.8
2017-Oct-19 19:30N 46°48' W 092°02'1 1.5
2017-Oct-19 19:00N 46°48' W 092°01'0 0.5
2017-Oct-19 18:30N 46°48' W 092°01'2 3.3
2017-Oct-19 18:00N 46°49' W 091°59'3 6.3
2017-Oct-19 17:30N 46°50' W 091°54'3 6.5
2017-Oct-19 17:00N 46°51' W 091°50'4 8.7
2017-Oct-19 16:30N 46°53' W 091°44'4 8.7
2017-Oct-19 16:00N 46°54' W 091°38'298.4
2017-Oct-19 16:00N 46°54' W 091°36'3 6.8 220 / 161015.010.8 8.3 0.5
2017-Oct-19 15:30N 46°56' W 091°32'12711.0
2017-Oct-19 04:00N 47°24' W 088°30'220 8.7 280 / 271006.010.8 8.3 3.3
2017-Oct-18 02:36N 45°45' W 083°44'112.8
2017-Oct-18 02:30N 45°44' W 083°43'612.8
2017-Oct-18 02:00N 45°38' W 083°37'712.8
2017-Oct-18 01:30N 45°33' W 083°32'612.8
2017-Oct-18 01:00N 45°28' W 083°27'11012.2
2017-Oct-17 16:00N 43°54' W 082°06'133 2.8 180 / 221019.010.8 11.6 6.6
2017-Oct-15 16:00N 41°48' W 083°06'192 5.3 220 / 301007.010.8 19.418.3
2017-Oct-14 04:00N 45°00' W 082°54'5812.3 290 / 151021.010.8 14.413.8
2017-Oct-13 23:18N 45°48' W 083°41'164 8.5
2017-Oct-13 04:00N 47°18' W 087°00'14311.9 180 / 191016.010.8 12.211.1
2017-Oct-12 16:00N 47°12' W 090°30'4911.8 160 / 261019.010.8 11.1 8.3
2017-Oct-12 11:52N 46°55' W 091°38'412.2
2017-Oct-12 11:30N 46°54' W 091°43'612.1
2017-Oct-12 11:00N 46°51' W 091°51'612.1
2017-Oct-12 10:30N 46°49' W 091°60'5 9.3
2017-Oct-12 10:00N 46°47' W 092°06'2 3.4
2017-Oct-12 09:30N 46°45' W 092°06'1 1.7
2017-Oct-12 09:00N 46°45' W 092°07'0 0.0
2017-Oct-12 08:30N 46°45' W 092°07'0 0.0
2017-Oct-12 08:00N 46°45' W 092°07'0 0.0
2017-Oct-12 07:30N 46°45' W 092°07'0 0.0
2017-Oct-12 07:00N 46°45' W 092°07'0 0.0
2017-Oct-12 06:30N 46°45' W 092°07'0 0.0
2017-Oct-12 06:00N 46°45' W 092°07'0 0.0
2017-Oct-12 05:30N 46°45' W 092°07'0 0.0
2017-Oct-12 05:00N 46°45' W 092°07'0 0.0
2017-Oct-12 04:30N 46°45' W 092°07'0 0.0
2017-Oct-12 04:00N 46°45' W 092°07'  
Track history (hours):
 
Tides and Currents Weather Stations Pressure Air Temp Water Temp Dewpoint Dewpoint Depression Visibility Wind Speed Wind Dir Waves Ship Positions

Walter J Mccarthy Jr

Owner: ARMSTRONG STEAMSHIP CO, WILLIAMSVILLE, NY. More information available from US FCC via Universal Licensing System and Coast Guard Vessel Documentation Center.

Last reported at 2017-Oct-22 04:00 UTC. Time now 2017-Oct-22 12:13 UTC.
Position N 44°54' W 082°54'.

Length 304 m; draft 8.5 m.

Type: Cargo ship. MMSI: 366906610.

Wind from 190 at 16 knots

Barometer 1019.0 mb
Air temperature 14.4 ° C
Visibility: greater than 10.8 NM
Dewpoint 13.3 ° C

Date/timePositionNaut miles runAvg speedWind from/ knotsBaromVisibWave heightAir tempDewpointWater temp
2017-Oct-22 04:00N 44°54' W 082°54'4912.1 190 / 161019.010.8 14.413.3
2017-Oct-21 23:55N 45°37' W 083°28'511.4
2017-Oct-21 23:28N 45°41' W 083°33'511.3
2017-Oct-21 23:00N 45°45' W 083°38'611.5
2017-Oct-21 22:30N 45°49' W 083°43'611.6
2017-Oct-21 22:00N 45°53' W 083°49'610.9
2017-Oct-21 21:29N 45°58' W 083°54'144 8.2
2017-Oct-21 04:00N 47°18' W 086°48'19311.8 180 / 201011.010.8 12.210.5
2017-Oct-20 11:39N 46°57' W 091°31'212.4
2017-Oct-20 11:28N 46°56' W 091°34'612.3
2017-Oct-20 11:00N 46°53' W 091°41'612.1
2017-Oct-20 10:30N 46°51' W 091°49'612.0
2017-Oct-20 10:00N 46°48' W 091°57'510.4
2017-Oct-20 09:30N 46°47' W 092°04'2 3.5
2017-Oct-20 09:00N 46°45' W 092°06'1 2.5
2017-Oct-20 08:30N 46°45' W 092°07'0 0.0
2017-Oct-20 08:00N 46°45' W 092°07'0 0.0
2017-Oct-20 07:30N 46°45' W 092°07'0 0.0
2017-Oct-20 07:00N 46°45' W 092°07'0 0.0
2017-Oct-20 06:30N 46°45' W 092°07'0 0.0
2017-Oct-20 06:00N 46°45' W 092°07'0 0.0
2017-Oct-20 05:30N 46°45' W 092°07'0 0.0
2017-Oct-20 05:00N 46°45' W 092°07'0 0.0
2017-Oct-20 04:30N 46°45' W 092°07'0 0.0
2017-Oct-20 04:00N 46°45' W 092°07'0 0.0
2017-Oct-20 03:30N 46°45' W 092°07'0 0.0
2017-Oct-20 03:00N 46°45' W 092°07'0 0.0
2017-Oct-20 02:30N 46°45' W 092°07'0 0.0
2017-Oct-20 02:00N 46°45' W 092°07'0 0.0
2017-Oct-20 01:30N 46°45' W 092°07'0 0.0
2017-Oct-20 01:00N 46°45' W 092°07'0 0.0
2017-Oct-20 00:30N 46°45' W 092°07'0 0.0
2017-Oct-20 00:00N 46°45' W 092°07'0 0.0
2017-Oct-19 23:30N 46°45' W 092°07'0 0.0
2017-Oct-19 23:00N 46°45' W 092°07'0 0.0
2017-Oct-19 22:30N 46°45' W 092°07'0 0.0
2017-Oct-19 22:00N 46°45' W 092°07'0 0.0
2017-Oct-19 21:30N 46°45' W 092°07'0 0.7
2017-Oct-19 21:00N 46°45' W 092°06'1 1.6
2017-Oct-19 20:30N 46°45' W 092°06'2 3.1
2017-Oct-19 20:00N 46°47' W 092°05'3 5.8
2017-Oct-19 19:30N 46°48' W 092°02'1 1.5
2017-Oct-19 19:00N 46°48' W 092°01'0 0.5
2017-Oct-19 18:30N 46°48' W 092°01'2 3.3
2017-Oct-19 18:00N 46°49' W 091°59'3 6.3
2017-Oct-19 17:30N 46°50' W 091°54'3 6.5
2017-Oct-19 17:00N 46°51' W 091°50'4 8.7
2017-Oct-19 16:30N 46°53' W 091°44'4 8.7
2017-Oct-19 16:00N 46°54' W 091°38'298.4
2017-Oct-19 16:00N 46°54' W 091°36'3 6.8 220 / 161015.010.8 8.3 0.5
2017-Oct-19 15:30N 46°56' W 091°32'12711.0
2017-Oct-19 04:00N 47°24' W 088°30'220 8.7 280 / 271006.010.8 8.3 3.3
2017-Oct-18 02:36N 45°45' W 083°44'112.8
2017-Oct-18 02:30N 45°44' W 083°43'612.8
2017-Oct-18 02:00N 45°38' W 083°37'712.8
2017-Oct-18 01:30N 45°33' W 083°32'612.8
2017-Oct-18 01:00N 45°28' W 083°27'11012.2
2017-Oct-17 16:00N 43°54' W 082°06'133 2.8 180 / 221019.010.8 11.6 6.6
2017-Oct-15 16:00N 41°48' W 083°06'192 5.3 220 / 301007.010.8 19.418.3
2017-Oct-14 04:00N 45°00' W 082°54'5812.3 290 / 151021.010.8 14.413.8
2017-Oct-13 23:18N 45°48' W 083°41'164 8.5
2017-Oct-13 04:00N 47°18' W 087°00'14311.9 180 / 191016.010.8 12.211.1
2017-Oct-12 16:00N 47°12' W 090°30'4911.8 160 / 261019.010.8 11.1 8.3
2017-Oct-12 11:52N 46°55' W 091°38'412.2
2017-Oct-12 11:30N 46°54' W 091°43'612.1
2017-Oct-12 11:00N 46°51' W 091°51'612.1
2017-Oct-12 10:30N 46°49' W 091°60'5 9.3
2017-Oct-12 10:00N 46°47' W 092°06'2 3.4
2017-Oct-12 09:30N 46°45' W 092°06'1 1.7
2017-Oct-12 09:00N 46°45' W 092°07'0 0.0
2017-Oct-12 08:30N 46°45' W 092°07'0 0.0
2017-Oct-12 08:00N 46°45' W 092°07'0 0.0
2017-Oct-12 07:30N 46°45' W 092°07'0 0.0
2017-Oct-12 07:00N 46°45' W 092°07'0 0.0
2017-Oct-12 06:30N 46°45' W 092°07'0 0.0
2017-Oct-12 06:00N 46°45' W 092°07'0 0.0
2017-Oct-12 05:30N 46°45' W 092°07'0 0.0
2017-Oct-12 05:00N 46°45' W 092°07'0 0.0
2017-Oct-12 04:30N 46°45' W 092°07'0 0.0
2017-Oct-12 04:00N 46°45' W 092°07'  

Dump ship's entire track history